Time;durP1;ratioP1;P1;durP2;ratioP2;P2;SDS_P1;SDS_P2;PMS_P1;PMS_P2;Temp;Humidity;BMP_temperature;BMP_pressure;BME280_temperature;BME280_humidity;BME280_pressure;Samples;Min_cycle;Max_cycle;Signal;HPM_P1;HPM_P2
2023/06/24 00:00:18;;;;;;;14.37;12.63;;;18.10;99.90;;;;;;5034274;28;20449;-72
2023/06/24 00:02:47;;;;;;;15.40;13.80;;;18.10;99.90;;;;;;5032636;28;20443;-72
2023/06/24 00:05:16;;;;;;;13.90;12.50;;;18.00;99.90;;;;;;5033743;28;20470;-72
2023/06/24 00:07:44;;;;;;;14.70;12.67;;;18.00;99.90;;;;;;5033679;28;20433;-72
2023/06/24 00:10:14;;;;;;;13.87;12.43;;;18.00;99.90;;;;;;5033821;28;20843;-72
2023/06/24 00:12:46;;;;;;;13.90;12.53;;;17.90;99.90;;;;;;5032519;28;20410;-72
2023/06/24 00:15:14;;;;;;;17.13;13.70;;;17.90;99.90;;;;;;5033724;28;20438;-72
2023/06/24 00:17:42;;;;;;;14.53;13.03;;;17.90;99.90;;;;;;5032079;28;20466;-72
2023/06/24 00:20:14;;;;;;;15.27;13.70;;;17.90;99.90;;;;;;5032444;28;20424;-72
2023/06/24 00:22:43;;;;;;;13.70;12.10;;;17.80;99.90;;;;;;5033723;28;20447;-72
2023/06/24 00:25:12;;;;;;;14.37;12.87;;;17.80;99.90;;;;;;5032207;28;21078;-72
2023/06/24 00:27:41;;;;;;;13.93;12.50;;;17.80;99.90;;;;;;5032171;28;20438;-72
2023/06/24 00:30:12;;;;;;;16.60;11.63;;;17.80;99.90;;;;;;5033540;28;20946;-72
2023/06/24 00:32:41;;;;;;;14.53;13.00;;;17.80;99.90;;;;;;5032263;28;20501;-72
2023/06/24 00:35:10;;;;;;;14.70;13.13;;;17.80;99.90;;;;;;5033886;28;20830;-72
2023/06/24 00:37:39;;;;;;;13.73;12.27;;;17.80;99.90;;;;;;5032010;28;20421;-72
2023/06/24 00:40:11;;;;;;;13.97;12.53;;;17.80;99.90;;;;;;5032070;28;20459;-72
2023/06/24 00:42:39;;;;;;;14.33;12.93;;;17.70;99.90;;;;;;5032139;28;20843;-72
2023/06/24 00:45:09;;;;;;;13.93;12.53;;;17.70;99.90;;;;;;5032040;28;20469;-72
2023/06/24 00:47:41;;;;;;;14.03;12.63;;;17.70;99.90;;;;;;5034049;28;20429;-72
2023/06/24 00:50:11;;;;;;;14.60;13.10;;;17.60;99.90;;;;;;5040190;28;20398;-73
2023/06/24 00:52:42;;;;;;;14.43;12.93;;;17.60;99.90;;;;;;5038196;28;20418;-73
2023/06/24 00:55:12;;;;;;;14.43;12.93;;;17.60;99.90;;;;;;5033575;28;20530;-73
2023/06/24 00:57:41;;;;;;;14.20;12.80;;;17.50;99.90;;;;;;5035726;28;20454;-73
2023/06/24 01:00:14;;;;;;;17.03;15.27;;;17.50;99.90;;;;;;5034688;28;20426;-72
2023/06/24 01:02:44;;;;;;;15.93;13.77;;;17.50;99.90;;;;;;5035595;28;20397;-73
2023/06/24 01:05:12;;;;;;;15.37;13.70;;;17.50;99.90;;;;;;5034181;28;20799;-73
2023/06/24 01:07:42;;;;;;;14.73;13.23;;;17.50;99.90;;;;;;5034108;28;20541;-72
2023/06/24 01:10:12;;;;;;;17.77;13.20;;;17.40;99.90;;;;;;5034467;28;20405;-72
2023/06/24 01:12:43;;;;;;;15.43;13.87;;;17.40;99.90;;;;;;5033669;28;20394;-72
2023/06/24 01:15:13;;;;;;;14.30;12.90;;;17.40;99.90;;;;;;5032192;28;20418;-72
2023/06/24 01:17:49;;;;;;;16.07;14.40;;;17.30;99.90;;;;;;5033339;28;20429;-73
2023/06/24 01:20:24;;;;;;;15.73;14.13;;;17.30;99.90;;;;;;5032017;28;20452;-72
2023/06/24 01:23:18;;;;;;;14.93;13.63;;;17.30;99.90;;;;;;5033707;28;20408;-72
2023/06/24 01:26:15;;;;;;;15.60;14.00;;;17.30;99.90;;;;;;5031812;28;20536;-72
2023/06/24 01:29:03;;;;;;;16.27;14.67;;;17.20;99.90;;;;;;5035529;28;20479;-72
2023/06/24 01:31:42;;;;;;;16.60;14.90;;;17.20;99.90;;;;;;5035653;28;20769;-72
2023/06/24 01:34:21;;;;;;;16.93;15.10;;;17.20;99.90;;;;;;5036918;28;20444;-72
2023/06/24 01:36:58;;;;;;;17.07;14.97;;;17.20;99.90;;;;;;5035474;28;20448;-72
2023/06/24 01:39:28;;;;;;;16.67;14.80;;;17.10;99.90;;;;;;5037020;28;20429;-72
2023/06/24 01:42:04;;;;;;;15.80;14.30;;;17.10;99.90;;;;;;5035434;28;20517;-72
2023/06/24 01:44:33;;;;;;;16.37;14.60;;;17.10;99.90;;;;;;5035138;28;20491;-72
2023/06/24 01:47:05;;;;;;;16.60;15.00;;;17.00;99.90;;;;;;5035040;28;20447;-72
2023/06/24 01:49:39;;;;;;;15.20;13.70;;;17.10;99.90;;;;;;5036389;28;20793;-73
2023/06/24 01:52:09;;;;;;;16.03;14.53;;;17.00;99.90;;;;;;5036339;28;20545;-73
2023/06/24 01:54:40;;;;;;;16.10;14.57;;;17.00;99.90;;;;;;5034947;28;20420;-73
2023/06/24 01:57:10;;;;;;;16.80;15.07;;;17.00;99.90;;;;;;5034992;28;20475;-73
2023/06/24 01:59:41;;;;;;;16.63;13.93;;;17.00;99.90;;;;;;5034847;28;20860;-73
2023/06/24 02:02:11;;;;;;;16.33;14.67;;;17.00;99.90;;;;;;5035096;28;20883;-72
2023/06/24 02:04:40;;;;;;;16.23;14.57;;;16.90;99.90;;;;;;5035134;28;20541;-72
2023/06/24 02:07:10;;;;;;;15.40;13.80;;;16.90;99.90;;;;;;5034647;28;20452;-71
2023/06/24 02:09:41;;;;;;;16.93;15.23;;;16.90;99.90;;;;;;5035901;28;20487;-72
2023/06/24 02:12:10;;;;;;;16.50;14.80;;;16.80;99.90;;;;;;5035938;28;20462;-72
2023/06/24 02:14:40;;;;;;;18.70;16.17;;;16.90;99.90;;;;;;5036124;28;20493;-72
2023/06/24 02:17:13;;;;;;;16.73;14.70;;;16.80;99.90;;;;;;5034507;28;20550;-72
2023/06/24 02:19:43;;;;;;;17.23;15.60;;;16.80;99.90;;;;;;5034396;28;20463;-72
2023/06/24 02:22:12;;;;;;;17.30;15.57;;;16.80;99.90;;;;;;5034566;28;20485;-72
2023/06/24 02:24:42;;;;;;;17.40;15.60;;;16.80;99.90;;;;;;5034401;28;20887;-72
2023/06/24 02:27:11;;;;;;;17.37;15.60;;;16.80;99.90;;;;;;5038597;28;20502;-72
2023/06/24 02:29:41;;;;;;;17.10;15.40;;;16.70;99.90;;;;;;5037069;28;20449;-72
2023/06/24 02:32:11;;;;;;;17.17;14.90;;;16.70;99.90;;;;;;5035554;28;20530;-72
2023/06/24 02:34:40;;;;;;;16.80;15.20;;;16.70;99.90;;;;;;5036344;28;20397;-72
2023/06/24 02:37:08;;;;;;;17.60;15.80;;;16.70;99.90;;;;;;5035798;28;20416;-72
2023/06/24 02:39:39;;;;;;;17.33;15.47;;;16.70;99.90;;;;;;5034199;28;20433;-72
2023/06/24 02:42:07;;;;;;;16.87;15.20;;;16.70;99.90;;;;;;5034270;28;20450;-72
2023/06/24 02:44:35;;;;;;;17.23;15.53;;;16.60;99.90;;;;;;5034085;28;20457;-72
2023/06/24 02:47:05;;;;;;;16.77;14.93;;;16.60;99.90;;;;;;5033857;28;20446;-72
2023/06/24 02:49:37;;;;;;;15.87;14.17;;;16.60;99.90;;;;;;5035260;28;20469;-72
2023/06/24 02:52:06;;;;;;;16.60;15.00;;;16.60;99.90;;;;;;5034072;28;20542;-72
2023/06/24 02:54:38;;;;;;;18.00;16.10;;;16.60;99.90;;;;;;5033960;28;20417;-72
2023/06/24 02:57:26;;;;;;;17.00;15.30;;;16.60;99.90;;;;;;5035358;28;20854;-72
2023/06/24 03:00:14;;;;;;;17.00;15.30;;;16.50;99.90;;;;;;5035195;28;20393;-72
2023/06/24 03:03:05;;;;;;;17.03;15.33;;;16.50;99.90;;;;;;5027205;28;20421;-72
2023/06/24 03:05:37;;;;;;;16.90;15.27;;;16.50;99.90;;;;;;5033937;28;20522;-72
2023/06/24 03:08:06;;;;;;;16.63;14.93;;;16.50;99.90;;;;;;5033729;28;20969;-72
2023/06/24 03:10:37;;;;;;;17.27;15.47;;;16.50;99.90;;;;;;5033610;28;20880;-72
2023/06/24 03:13:09;;;;;;;16.53;14.93;;;16.50;99.90;;;;;;5033786;28;20451;-71
2023/06/24 03:15:47;;;;;;;16.03;14.53;;;16.40;99.90;;;;;;5033588;28;20948;-72
2023/06/24 03:18:15;;;;;;;18.37;16.57;;;16.40;99.90;;;;;;5034636;28;20487;-72
2023/06/24 03:20:47;;;;;;;18.23;16.37;;;16.40;99.90;;;;;;5033500;28;20451;-71
2023/06/24 03:23:19;;;;;;;17.97;16.13;;;16.40;99.90;;;;;;5034115;28;20417;-71
2023/06/24 03:25:47;;;;;;;16.87;15.20;;;16.40;99.90;;;;;;5033260;28;20450;-72
2023/06/24 03:28:16;;;;;;;17.43;15.73;;;16.40;99.90;;;;;;5033036;28;20489;-71
2023/06/24 03:30:50;;;;;;;19.03;16.90;;;16.40;99.90;;;;;;5033973;28;20432;-71
2023/06/24 03:33:20;;;;;;;17.40;15.60;;;16.30;99.90;;;;;;5035031;28;20534;-72
2023/06/24 03:35:50;;;;;;;17.50;15.80;;;16.40;99.90;;;;;;5034826;28;20795;-72
2023/06/24 03:38:23;;;;;;;17.67;15.87;;;16.40;99.90;;;;;;5035128;28;20446;-71
2023/06/24 03:40:51;;;;;;;19.07;15.63;;;16.30;99.90;;;;;;5035072;28;20481;-72
2023/06/24 03:43:19;;;;;;;16.60;15.00;;;16.30;99.90;;;;;;5034343;28;20460;-72
2023/06/24 03:45:47;;;;;;;18.40;16.50;;;16.30;99.90;;;;;;5034432;28;20429;-71
2023/06/24 03:48:16;;;;;;;19.33;17.33;;;16.30;99.90;;;;;;5034508;28;20498;-72
2023/06/24 03:50:44;;;;;;;16.90;15.13;;;16.30;99.90;;;;;;5035012;28;20444;-72
2023/06/24 03:53:13;;;;;;;17.93;16.10;;;16.30;99.90;;;;;;5035602;28;20533;-71
2023/06/24 03:55:42;;;;;;;17.60;15.70;;;16.30;99.90;;;;;;5034393;28;20409;-72
2023/06/24 03:58:11;;;;;;;17.77;15.97;;;16.30;99.90;;;;;;5034849;28;20433;-72
2023/06/24 04:00:40;;;;;;;16.50;14.80;;;16.30;99.90;;;;;;5033341;28;20438;-72
2023/06/24 04:03:08;;;;;;;16.90;15.10;;;16.30;99.90;;;;;;5033499;28;20512;-71
2023/06/24 04:05:39;;;;;;;17.30;15.50;;;16.30;99.90;;;;;;5033903;28;20414;-72
2023/06/24 04:08:07;;;;;;;18.20;16.47;;;16.30;99.90;;;;;;5033177;28;20453;-72
2023/06/24 04:10:37;;;;;;;19.20;17.27;;;16.30;99.90;;;;;;5033186;28;20439;-72
2023/06/24 04:13:05;;;;;;;18.33;16.53;;;16.30;99.90;;;;;;5033379;28;20471;-72
2023/06/24 04:15:34;;;;;;;17.83;15.93;;;16.30;99.90;;;;;;5033250;28;20475;-72
2023/06/24 04:18:02;;;;;;;18.10;16.40;;;16.30;99.90;;;;;;5033437;28;20476;-72
2023/06/24 04:20:30;;;;;;;18.97;17.10;;;16.30;99.90;;;;;;5033400;28;20443;-72
2023/06/24 04:23:00;;;;;;;19.37;17.13;;;16.30;99.90;;;;;;5033636;28;20422;-72
2023/06/24 04:25:32;;;;;;;16.67;14.90;;;16.30;99.90;;;;;;5033752;28;20446;-72
2023/06/24 04:28:02;;;;;;;18.70;16.10;;;16.30;99.90;;;;;;5033559;28;20489;-72
2023/06/24 04:30:30;;;;;;;19.20;17.20;;;16.30;99.90;;;;;;5033278;28;20454;-72
2023/06/24 04:32:58;;;;;;;19.10;17.10;;;16.30;99.90;;;;;;5033396;28;20550;-72
2023/06/24 04:35:27;;;;;;;20.40;18.40;;;16.30;99.90;;;;;;5033573;28;20506;-72
2023/06/24 04:37:55;;;;;;;20.60;18.43;;;16.30;99.90;;;;;;5032986;28;20471;-72
2023/06/24 04:40:24;;;;;;;18.80;16.90;;;16.40;99.90;;;;;;5032144;28;20622;-72
2023/06/24 04:42:52;;;;;;;22.27;20.03;;;16.30;99.90;;;;;;5033491;28;20872;-72
2023/06/24 04:45:21;;;;;;;20.83;18.70;;;16.30;99.90;;;;;;5033807;28;20417;-72
2023/06/24 04:47:50;;;;;;;22.57;20.10;;;16.40;99.90;;;;;;5033667;28;20867;-72
2023/06/24 04:50:18;;;;;;;23.33;19.27;;;16.40;99.90;;;;;;5033507;28;20500;-72
2023/06/24 04:52:52;;;;;;;20.90;18.83;;;16.40;99.90;;;;;;5033546;28;20462;-72
2023/06/24 04:55:21;;;;;;;20.63;18.53;;;16.40;99.90;;;;;;5033855;28;20398;-72
2023/06/24 04:57:50;;;;;;;22.13;19.93;;;16.40;99.90;;;;;;5033603;28;20478;-72
2023/06/24 05:00:18;;;;;;;20.83;18.77;;;16.50;99.90;;;;;;5033809;28;20435;-72
2023/06/24 05:02:48;;;;;;;24.37;22.00;;;16.50;99.90;;;;;;5034291;28;20443;-72
2023/06/24 05:05:16;;;;;;;24.07;20.30;;;16.50;99.90;;;;;;5036721;28;20437;-72
2023/06/24 05:07:44;;;;;;;21.60;19.30;;;16.50;99.90;;;;;;5037883;28;20508;-72
2023/06/24 05:10:12;;;;;;;22.13;19.50;;;16.50;99.90;;;;;;5038175;28;20435;-71
2023/06/24 05:12:40;;;;;;;21.90;19.67;;;16.60;99.90;;;;;;5037808;28;20414;-72
2023/06/24 05:15:09;;;;;;;23.43;20.77;;;16.60;99.90;;;;;;5037937;28;20551;-72
2023/06/24 05:17:38;;;;;;;22.30;20.03;;;16.60;99.90;;;;;;5038023;28;20504;-72
2023/06/24 05:20:08;;;;;;;22.67;20.10;;;16.70;99.90;;;;;;5037818;28;20459;-72
2023/06/24 05:22:37;;;;;;;22.80;20.50;;;16.70;99.90;;;;;;5038006;28;20436;-72
2023/06/24 05:25:06;;;;;;;22.23;19.93;;;16.80;99.90;;;;;;5038012;28;20439;-72
2023/06/24 05:27:34;;;;;;;22.93;20.63;;;16.80;99.90;;;;;;5037377;28;20529;-71
2023/06/24 05:30:02;;;;;;;21.10;19.07;;;16.90;99.90;;;;;;5037508;28;20879;-72
2023/06/24 05:32:30;;;;;;;23.13;20.67;;;16.90;99.90;;;;;;5039263;28;20422;-72
2023/06/24 05:34:58;;;;;;;23.17;19.30;;;17.00;99.90;;;;;;5039812;28;20412;-72
2023/06/24 05:37:29;;;;;;;20.23;18.20;;;17.00;99.90;;;;;;5038491;28;20409;-73
2023/06/24 05:40:01;;;;;;;20.07;18.10;;;17.10;99.90;;;;;;5037884;28;20429;-72
2023/06/24 05:42:29;;;;;;;19.27;16.63;;;17.30;99.90;;;;;;5038493;28;20535;-73
2023/06/24 05:44:57;;;;;;;20.13;18.23;;;17.40;99.90;;;;;;5037758;28;20443;-72
2023/06/24 05:47:25;;;;;;;18.83;16.93;;;17.50;99.90;;;;;;5037236;28;20409;-72
2023/06/24 05:49:53;;;;;;;18.80;16.80;;;17.70;99.90;;;;;;5037819;28;20413;-72
2023/06/24 05:52:21;;;;;;;17.73;16.03;;;17.80;99.90;;;;;;5037785;28;20489;-72
2023/06/24 05:54:51;;;;;;;16.20;14.47;;;18.00;99.90;;;;;;5037618;28;20431;-72
2023/06/24 05:57:19;;;;;;;19.50;15.63;;;18.20;99.90;;;;;;5037949;28;20787;-72
2023/06/24 05:59:47;;;;;;;16.40;14.70;;;18.40;99.90;;;;;;5037596;28;20450;-72
2023/06/24 06:02:15;;;;;;;15.00;13.50;;;18.60;99.90;;;;;;5038181;28;20438;-72
2023/06/24 06:04:44;;;;;;;18.10;14.10;;;18.70;99.90;;;;;;5037926;28;20431;-72
2023/06/24 06:07:12;;;;;;;14.77;13.30;;;18.90;99.90;;;;;;5037768;28;20442;-72
2023/06/24 06:09:40;;;;;;;14.43;11.97;;;19.20;99.90;;;;;;5038835;28;20829;-72
2023/06/24 06:12:10;;;;;;;14.30;12.90;;;19.40;99.90;;;;;;5037854;28;20442;-76
2023/06/24 06:14:40;;;;;;;13.50;10.80;;;19.50;99.90;;;;;;5054597;28;20464;-76
2023/06/24 06:17:10;;;;;;;15.53;13.90;;;19.70;99.90;;;;;;5044454;28;20477;-79
2023/06/24 06:19:39;;;;;;;14.40;11.67;;;19.80;99.90;;;;;;5045028;28;20475;-80
2023/06/24 06:22:08;;;;;;;12.30;10.53;;;19.90;99.90;;;;;;5039349;28;20445;-76
2023/06/24 06:24:36;;;;;;;13.20;11.00;;;20.10;99.90;;;;;;5036743;28;20472;-76
2023/06/24 06:27:04;;;;;;;13.60;11.13;;;20.20;99.90;;;;;;5035531;28;20453;-77
2023/06/24 06:29:34;;;;;;;13.87;12.17;;;20.40;99.90;;;;;;5036126;28;20488;-75
2023/06/24 06:32:02;;;;;;;13.53;12.07;;;20.50;99.90;;;;;;5036683;28;20944;-77
2023/06/24 06:34:30;;;;;;;14.43;12.13;;;20.60;99.90;;;;;;5035586;28;20458;-77
2023/06/24 06:36:58;;;;;;;16.63;14.40;;;20.80;99.90;;;;;;5034703;28;20474;-77
2023/06/24 06:39:27;;;;;;;12.57;11.27;;;20.90;99.90;;;;;;5034658;28;20933;-76
2023/06/24 06:41:55;;;;;;;14.30;12.77;;;21.10;99.90;;;;;;5034845;28;20450;-76
2023/06/24 06:44:25;;;;;;;13.50;10.47;;;21.20;99.90;;;;;;5035035;28;20447;-77
2023/06/24 06:46:55;;;;;;;12.60;10.20;;;21.30;99.90;;;;;;5035894;28;20485;-77
2023/06/24 06:49:24;;;;;;;10.90;9.80;;;21.40;99.90;;;;;;5035734;28;20493;-77
2023/06/24 06:51:55;;;;;;;13.20;10.03;;;21.50;99.90;;;;;;5035934;28;20799;-75
2023/06/24 06:54:23;;;;;;;14.37;12.27;;;21.60;99.90;;;;;;5036305;28;20935;-76
2023/06/24 06:56:52;;;;;;;18.20;15.77;;;21.70;99.90;;;;;;5037834;28;20431;-75
2023/06/24 06:59:22;;;;;;;12.57;11.27;;;21.80;99.90;;;;;;5038077;28;20463;-75
2023/06/24 07:01:50;;;;;;;11.73;9.30;;;21.90;99.90;;;;;;5038667;28;20431;-76
2023/06/24 07:04:20;;;;;;;11.40;8.87;;;22.00;99.90;;;;;;5038041;28;20443;-75
2023/06/24 07:06:48;;;;;;;10.60;8.90;;;22.10;99.90;;;;;;5036341;28;20447;-75
2023/06/24 07:09:19;;;;;;;10.27;7.67;;;22.20;99.90;;;;;;5038480;28;20521;-77
2023/06/24 07:11:48;;;;;;;9.47;8.10;;;22.30;99.90;;;;;;5038617;28;20437;-76
2023/06/24 07:14:17;;;;;;;11.50;8.30;;;22.40;99.90;;;;;;5036309;28;20474;-76
2023/06/24 07:16:48;;;;;;;13.40;9.57;;;22.50;99.90;;;;;;5039447;28;20778;-76
2023/06/24 07:19:17;;;;;;;10.30;7.80;;;22.50;99.90;;;;;;5039275;28;20455;-75
2023/06/24 07:21:46;;;;;;;11.73;8.03;;;22.60;99.90;;;;;;5036269;28;20501;-75
2023/06/24 07:24:14;;;;;;;11.73;8.30;;;22.70;99.90;;;;;;5034835;28;20505;-76
2023/06/24 07:26:42;;;;;;;9.10;7.97;;;22.70;99.90;;;;;;5032401;28;20531;-76
2023/06/24 07:29:10;;;;;;;10.20;7.60;;;22.80;99.90;;;;;;5034811;28;21493;-76
2023/06/24 07:31:39;;;;;;;9.33;7.60;;;22.90;99.90;;;;;;5035078;28;20916;-75
2023/06/24 07:34:07;;;;;;;11.83;7.50;;;22.90;99.90;;;;;;5033145;28;20447;-75
2023/06/24 07:36:35;;;;;;;9.87;8.13;;;23.00;99.90;;;;;;5034766;28;20963;-75
2023/06/24 07:39:05;;;;;;;9.03;7.83;;;23.00;99.90;;;;;;5034586;28;20549;-75
2023/06/24 07:41:33;;;;;;;8.90;7.80;;;23.00;99.90;;;;;;5033592;28;20478;-75
2023/06/24 07:44:02;;;;;;;8.27;7.20;;;23.10;99.90;;;;;;5034447;28;20439;-74
2023/06/24 07:46:30;;;;;;;8.67;7.50;;;23.10;99.90;;;;;;5034356;28;20979;-76
2023/06/24 07:48:58;;;;;;;8.40;6.93;;;23.20;99.90;;;;;;5034251;28;20467;-74
2023/06/24 07:51:26;;;;;;;11.20;7.83;;;23.30;99.90;;;;;;5034183;28;20932;-76
2023/06/24 07:53:54;;;;;;;8.70;6.80;;;23.30;99.90;;;;;;5034308;28;20529;-76
2023/06/24 07:56:24;;;;;;;10.30;7.73;;;23.40;99.90;;;;;;5034392;28;20944;-75
2023/06/24 07:58:52;;;;;;;11.07;8.57;;;23.50;99.90;;;;;;5033953;28;20546;-75
2023/06/24 08:01:20;;;;;;;8.30;7.37;;;23.50;99.90;;;;;;5032614;28;21021;-75
2023/06/24 08:03:48;;;;;;;10.30;7.30;;;23.60;99.90;;;;;;5032966;28;20474;-75
2023/06/24 08:06:17;;;;;;;8.03;7.00;;;23.70;99.90;;;;;;5033976;28;20435;-75
2023/06/24 08:08:46;;;;;;;8.40;6.90;;;23.70;99.90;;;;;;5033682;28;20475;-76
2023/06/24 08:11:14;;;;;;;8.53;6.50;;;23.70;99.90;;;;;;5033987;28;20435;-76
2023/06/24 08:13:44;;;;;;;7.17;6.30;;;23.80;99.90;;;;;;5034154;28;20878;-75
2023/06/24 08:16:12;;;;;;;8.70;6.40;;;23.80;99.90;;;;;;5034195;28;20554;-75
2023/06/24 08:18:40;;;;;;;7.57;6.73;;;23.80;99.90;;;;;;5033937;28;20465;-75
2023/06/24 08:21:08;;;;;;;8.40;6.50;;;23.90;99.90;;;;;;5032510;28;20490;-75
2023/06/24 08:23:36;;;;;;;7.40;5.80;;;23.90;99.90;;;;;;5033867;28;20920;-75
2023/06/24 08:26:05;;;;;;;8.80;6.60;;;24.00;99.90;;;;;;5033724;28;20525;-74
2023/06/24 08:28:47;;;;;;;8.00;6.60;;;24.00;99.90;;;;;;5033640;28;20509;-75
2023/06/24 08:31:15;;;;;;;7.90;6.80;;;24.00;99.90;;;;;;5033804;28;20415;-75
2023/06/24 08:33:45;;;;;;;7.23;6.30;;;24.00;99.90;;;;;;5039342;28;20439;-76
2023/06/24 08:36:13;;;;;;;8.93;6.90;;;24.10;99.90;;;;;;5039783;28;20928;-76
2023/06/24 08:38:41;;;;;;;8.93;6.80;;;24.10;99.90;;;;;;5036636;28;20458;-77
2023/06/24 08:41:09;;;;;;;10.03;7.07;;;24.10;99.90;;;;;;5036157;28;20801;-75
2023/06/24 08:43:38;;;;;;;9.77;7.73;;;24.10;99.90;;;;;;5035541;28;20443;-76
2023/06/24 08:46:09;;;;;;;8.67;6.90;;;24.10;99.90;;;;;;5034962;28;20522;-76
2023/06/24 08:48:40;;;;;;;9.43;7.87;;;24.10;99.90;;;;;;5034407;28;20459;-76
2023/06/24 08:51:09;;;;;;;11.67;8.50;;;24.20;99.90;;;;;;5034927;28;20455;-76
2023/06/24 08:53:40;;;;;;;7.80;6.53;;;24.20;99.90;;;;;;5034010;28;20437;-75
2023/06/24 08:56:08;;;;;;;10.37;8.33;;;24.20;99.90;;;;;;5033978;28;20434;-76
2023/06/24 08:58:36;;;;;;;9.47;8.10;;;24.30;99.90;;;;;;5032426;28;20471;-76
2023/06/24 09:01:06;;;;;;;10.70;7.87;;;24.30;99.90;;;;;;5033515;28;20489;-76
2023/06/24 09:03:36;;;;;;;12.10;8.63;;;24.30;99.90;;;;;;5033504;28;20470;-77
2023/06/24 09:06:05;;;;;;;9.10;7.97;;;24.30;99.90;;;;;;5031953;28;20860;-76
2023/06/24 09:08:35;;;;;;;9.23;7.83;;;24.30;99.90;;;;;;5031950;28;20898;-76
2023/06/24 09:11:03;;;;;;;9.63;8.27;;;24.30;99.90;;;;;;5032123;28;20466;-75
2023/06/24 09:13:36;;;;;;;13.07;8.80;;;24.30;99.90;;;;;;5031940;28;20500;-76
2023/06/24 09:16:14;;;;;;;9.80;7.87;;;24.30;99.90;;;;;;5032053;28;20947;-77
2023/06/24 09:18:49;;;;;;;8.77;6.73;;;24.40;99.90;;;;;;5033920;28;20455;-76
2023/06/24 09:21:24;;;;;;;8.33;7.40;;;24.50;99.90;;;;;;5033472;28;20479;-76
2023/06/24 09:23:54;;;;;;;9.87;8.37;;;24.50;99.90;;;;;;5033661;28;20447;-76
2023/06/24 09:26:24;;;;;;;12.43;8.53;;;24.60;99.90;;;;;;5033386;28;20507;-75
2023/06/24 09:28:54;;;;;;;7.93;6.70;;;24.60;99.90;;;;;;5032864;28;21003;-77
2023/06/24 09:31:24;;;;;;;8.53;7.63;;;24.70;99.90;;;;;;5033587;28;20545;-76
2023/06/24 09:33:58;;;;;;;7.80;6.27;;;24.80;99.90;;;;;;5034890;28;20473;-77
2023/06/24 09:36:26;;;;;;;9.40;7.37;;;24.80;99.90;;;;;;5034434;28;20423;-77
2023/06/24 09:39:03;;;;;;;9.73;7.47;;;24.90;99.90;;;;;;5032709;28;20589;-76
2023/06/24 09:41:36;;;;;;;9.30;7.40;;;24.90;99.90;;;;;;5033600;28;20447;-77
2023/06/24 09:44:09;;;;;;;9.70;8.67;;;25.00;99.90;;;;;;5033763;28;20883;-77
2023/06/24 09:46:37;;;;;;;9.13;7.43;;;25.10;99.90;;;;;;5032203;28;20439;-77
2023/06/24 09:49:07;;;;;;;11.93;8.20;;;25.10;99.90;;;;;;5032972;28;20498;-77
2023/06/24 09:51:39;;;;;;;8.90;8.00;;;25.10;99.90;;;;;;5035860;28;21015;-77
2023/06/24 09:54:09;;;;;;;8.83;7.70;;;25.20;99.90;;;;;;5036312;28;20427;-79
2023/06/24 09:56:38;;;;;;;9.33;8.37;;;25.20;99.90;;;;;;5038574;28;20446;-79
2023/06/24 09:59:07;;;;;;;9.83;8.23;;;25.20;99.90;;;;;;5038951;28;21006;-80
2023/06/24 10:01:39;;;;;;;9.67;8.30;;;25.30;99.90;;;;;;5039803;28;20477;-80
2023/06/24 10:04:10;;;;;;;9.47;8.30;;;25.30;99.90;;;;;;5039263;28;20447;-80
2023/06/24 10:06:38;;;;;;;11.87;8.70;;;25.30;99.90;;;;;;5039408;28;20454;-77
2023/06/24 10:09:07;;;;;;;10.07;8.53;;;25.30;99.90;;;;;;5041179;28;20454;-83
2023/06/24 10:11:35;;;;;;;9.67;8.17;;;25.30;99.90;;;;;;5041441;28;20521;-83
2023/06/24 10:14:04;;;;;;;11.70;8.70;;;25.40;99.90;;;;;;5042104;28;20435;-83
2023/06/24 10:16:32;;;;;;;10.83;9.30;;;25.40;99.90;;;;;;5040534;28;20455;-83
2023/06/24 10:19:02;;;;;;;9.43;8.40;;;25.50;99.90;;;;;;5042640;28;20553;-81
2023/06/24 10:24:34;;;;;;;9.83;8.80;;;25.60;99.90;;;;;;5118710;27;20528;-79
2023/06/24 10:27:07;;;;;;;11.20;9.00;;;25.60;99.90;;;;;;5112400;28;20487;-78
2023/06/24 10:29:38;;;;;;;10.20;8.70;;;25.60;99.90;;;;;;5110965;28;20467;-78
2023/06/24 10:32:07;;;;;;;11.93;9.27;;;25.50;99.90;;;;;;5113974;28;20432;-79
2023/06/24 10:34:40;;;;;;;10.50;8.50;;;25.50;99.90;;;;;;5113001;28;21005;-78
2023/06/24 10:37:14;;;;;;;10.40;9.30;;;25.60;99.90;;;;;;5111469;28;20473;-79
2023/06/24 10:39:49;;;;;;;11.37;9.73;;;25.70;99.90;;;;;;5111678;28;21075;-78
2023/06/24 10:42:28;;;;;;;10.90;9.50;;;25.70;99.90;;;;;;5112447;28;20423;-78
2023/06/24 10:44:57;;;;;;;9.90;8.90;;;25.70;99.90;;;;;;5114469;28;20423;-81
2023/06/24 10:47:27;;;;;;;10.60;8.87;;;25.70;99.90;;;;;;5115710;28;20465;-80
2023/06/24 10:49:55;;;;;;;11.23;10.03;;;25.70;99.90;;;;;;5114027;28;20493;-75
2023/06/24 10:52:24;;;;;;;11.37;8.33;;;25.70;99.90;;;;;;5111926;28;20790;-75
2023/06/24 10:54:55;;;;;;;9.33;8.07;;;25.80;99.90;;;;;;5110408;28;20444;-75
2023/06/24 10:57:24;;;;;;;9.40;8.33;;;25.90;99.90;;;;;;5111917;28;20431;-74
2023/06/24 10:59:54;;;;;;;10.57;8.03;;;26.00;99.90;;;;;;5110579;28;20493;-75
2023/06/24 11:02:23;;;;;;;8.43;6.90;;;26.00;99.90;;;;;;5109164;28;20440;-74
2023/06/24 11:04:53;;;;;;;8.80;7.90;;;26.00;99.90;;;;;;5111573;28;20773;-75
2023/06/24 11:07:23;;;;;;;11.53;7.87;;;26.10;99.90;;;;;;5111045;28;20442;-77
2023/06/24 11:09:54;;;;;;;8.20;7.40;;;26.20;99.90;;;;;;5110591;28;20428;-75
2023/06/24 11:12:25;;;;;;;9.70;7.13;;;26.30;99.90;;;;;;5109063;28;20929;-75
2023/06/24 11:14:56;;;;;;;9.47;7.30;;;26.40;99.90;;;;;;5109026;28;20427;-75
2023/06/24 11:17:25;;;;;;;9.03;7.20;;;26.40;99.90;;;;;;5113357;28;20426;-76
2023/06/24 11:19:54;;;;;;;8.13;6.60;;;26.40;99.90;;;;;;5111050;28;20436;-74
2023/06/24 11:22:23;;;;;;;8.47;7.30;;;26.50;99.90;;;;;;5109771;28;20887;-73
2023/06/24 11:24:54;;;;;;;8.77;7.27;;;26.50;99.90;;;;;;5111170;28;20422;-75
2023/06/24 11:27:26;;;;;;;8.00;6.87;;;26.60;99.90;;;;;;5108807;28;20518;-74
2023/06/24 11:29:58;;;;;;;9.40;8.17;;;26.60;99.90;;;;;;5110074;28;20455;-73
2023/06/24 11:32:35;;;;;;;9.10;7.20;;;26.60;99.90;;;;;;5110178;28;20416;-73
2023/06/24 11:35:05;;;;;;;7.80;6.23;;;26.60;99.90;;;;;;5100096;28;20790;-74
2023/06/24 11:37:33;;;;;;;8.10;7.30;;;26.60;99.90;;;;;;5095475;28;20849;-74
2023/06/24 11:40:05;;;;;;;11.83;8.57;;;26.50;99.90;;;;;;5097296;28;20493;-74
2023/06/24 11:42:36;;;;;;;7.80;7.00;;;26.60;99.90;;;;;;5096448;28;20416;-74
2023/06/24 11:45:06;;;;;;;8.50;7.10;;;26.60;99.90;;;;;;5096867;28;20493;-74
2023/06/24 11:47:34;;;;;;;9.37;7.57;;;26.60;99.90;;;;;;5096054;28;20428;-75
2023/06/24 11:50:04;;;;;;;11.87;7.27;;;26.70;99.90;;;;;;5096578;28;20466;-75
2023/06/24 11:52:43;;;;;;;8.20;7.40;;;26.70;99.90;;;;;;5096010;28;20424;-75
2023/06/24 11:55:18;;;;;;;7.93;7.13;;;26.70;99.90;;;;;;5096810;28;20420;-76
2023/06/24 11:57:51;;;;;;;8.47;7.10;;;26.70;99.90;;;;;;5095091;28;20482;-75
2023/06/24 12:00:22;;;;;;;9.23;8.20;;;26.80;99.90;;;;;;5096191;28;20774;-76
2023/06/24 12:02:52;;;;;;;8.60;7.80;;;26.80;99.90;;;;;;5095657;28;20421;-76
2023/06/24 12:05:28;;;;;;;7.60;6.57;;;26.90;99.70;;;;;;5095652;28;20432;-76
2023/06/24 12:08:01;;;;;;;8.00;6.40;;;27.00;99.80;;;;;;5094174;28;20470;-76
2023/06/24 12:10:33;;;;;;;8.50;7.60;;;27.00;99.90;;;;;;5094485;28;20433;-76
2023/06/24 12:13:03;;;;;;;8.00;7.00;;;27.00;99.70;;;;;;5095908;28;20420;-76
2023/06/24 12:15:31;;;;;;;8.40;7.13;;;27.10;99.70;;;;;;5095537;28;20436;-76
2023/06/24 12:17:59;;;;;;;8.10;7.30;;;27.10;99.70;;;;;;5096226;28;20456;-76
2023/06/24 12:20:28;;;;;;;8.87;8.03;;;27.20;99.60;;;;;;5096017;28;20431;-75
2023/06/24 12:23:02;;;;;;;10.03;7.70;;;27.30;99.20;;;;;;5095367;28;20448;-76
2023/06/24 12:25:32;;;;;;;8.67;7.73;;;27.30;99.10;;;;;;5096183;28;20523;-75
2023/06/24 12:28:00;;;;;;;8.43;7.20;;;27.30;99.00;;;;;;5095243;28;20464;-76
2023/06/24 12:30:28;;;;;;;10.40;8.50;;;27.30;99.20;;;;;;5094026;28;20498;-76
2023/06/24 12:32:56;;;;;;;9.60;8.10;;;27.30;99.20;;;;;;5095319;28;20452;-74
2023/06/24 12:35:26;;;;;;;10.30;7.23;;;27.30;99.10;;;;;;5095776;28;20763;-75
2023/06/24 12:37:54;;;;;;;8.70;7.83;;;27.30;99.10;;;;;;5095084;28;20984;-75
2023/06/24 12:40:22;;;;;;;8.77;7.53;;;27.40;99.10;;;;;;5093772;28;20849;-76
2023/06/24 12:42:52;;;;;;;9.80;7.80;;;27.40;98.90;;;;;;5093797;28;20453;-77
2023/06/24 12:45:20;;;;;;;8.33;7.47;;;27.50;98.80;;;;;;5094359;28;20492;-77
2023/06/24 12:47:50;;;;;;;9.20;8.30;;;27.50;98.80;;;;;;5093234;28;20471;-76
2023/06/24 12:50:18;;;;;;;10.13;8.07;;;27.50;98.80;;;;;;5094838;28;20451;-77
2023/06/24 12:52:46;;;;;;;8.47;7.57;;;27.50;98.80;;;;;;5095026;28;20523;-76